Česky Dansk Deutsch English Español Suomi Français Magyar Italiano Nederlands norsk Polski Português svenska Türkçe

 

Het Weer

Budapest / Ferihegy (Hongarije)

14:00, 23 augustus 2016 (GMT)

NWNNE
WE
SWSSE
Home            
Budapest / Ferihegy Budapest Met Center Budaors Tokol Kecskemet Szolnok Szentkiralyszabadja Lucenec Siofok Nitra Miskolc Sliac Sliac Papa Szeged Taszar Prievidza Kaposvar Bekescsaba Pecs / Pogany Piestany Piestany Debrecen

Om een weerknop op uw website of weblog te plaatsen, copieer onderstaande code en plak die in uw pagina. In het eerste vakje staat HTML-code, in het tweede vakje UBB-code.


Add to Google

Details

Wind speed:3 bf, 7 kn, 3.6 m/s, 8.1 miles/h, 13.0 km/h
Wind direction:NNW, 340°
Visibility:Greater than 10000 m, 10 km, 32800 ft, 6.2 miles
Clouds:CAVOC
Temperature:25°C, 77°F
Gefühlte Temperatur:26°C, 79°F
Dew-point:15°C, 59°F
Atmospheric pressure:1023 hPa, 767.3 mmHg, 30.21 inHg, 1.010 atm
Relative humidity:53.8 %
METAR:LHBP 231400Z 34007KT CAVOK 25/15 Q1023 NOSIG

Snelkoppelingen

Actuele weersinformatie van de hele wereld. Voeg locaties toe met het plus (+) symbool. Deze snelkoppelingen kunnen worden toegevoegd aan Google.

Lid van de Technetium groep

website free tracking
StatCounter NetStat W3C Validator

28-05-2020 05:06:25
astro.technetium.be money.technetium.be phote.technetium.be tafeltennistafel.technetium.be www.ligfiets.net